sensor_id;sensor_type;location;lat;lon;timestamp;P1;durP1;ratioP1;P2;durP2;ratioP2
6412;SDS011;3239;48.714;9.472;2023-03-05T00:00:46;41.87;;;20.80;;
6412;SDS011;3239;48.714;9.472;2023-03-05T00:03:12;48.60;;;21.87;;
6412;SDS011;3239;48.714;9.472;2023-03-05T00:05:37;48.23;;;23.00;;
6412;SDS011;3239;48.714;9.472;2023-03-05T00:08:03;46.80;;;22.20;;
6412;SDS011;3239;48.714;9.472;2023-03-05T00:10:29;51.20;;;22.70;;
6412;SDS011;3239;48.714;9.472;2023-03-05T00:12:55;39.53;;;21.13;;
6412;SDS011;3239;48.714;9.472;2023-03-05T00:15:20;40.23;;;20.80;;
6412;SDS011;3239;48.714;9.472;2023-03-05T00:17:46;43.90;;;22.03;;
6412;SDS011;3239;48.714;9.472;2023-03-05T00:20:12;48.70;;;22.70;;
6412;SDS011;3239;48.714;9.472;2023-03-05T00:22:38;43.80;;;21.47;;
6412;SDS011;3239;48.714;9.472;2023-03-05T00:25:04;54.10;;;23.00;;
6412;SDS011;3239;48.714;9.472;2023-03-05T00:27:30;46.70;;;22.20;;
6412;SDS011;3239;48.714;9.472;2023-03-05T00:29:56;43.50;;;22.40;;
6412;SDS011;3239;48.714;9.472;2023-03-05T00:32:22;46.30;;;24.40;;
6412;SDS011;3239;48.714;9.472;2023-03-05T00:34:48;52.07;;;23.70;;
6412;SDS011;3239;48.714;9.472;2023-03-05T00:37:14;53.00;;;23.63;;
6412;SDS011;3239;48.714;9.472;2023-03-05T00:39:40;55.80;;;25.47;;
6412;SDS011;3239;48.714;9.472;2023-03-05T00:42:06;46.03;;;22.67;;
6412;SDS011;3239;48.714;9.472;2023-03-05T00:44:32;47.93;;;23.27;;
6412;SDS011;3239;48.714;9.472;2023-03-05T00:46:58;48.93;;;23.67;;
6412;SDS011;3239;48.714;9.472;2023-03-05T00:49:23;44.00;;;22.53;;
6412;SDS011;3239;48.714;9.472;2023-03-05T00:51:49;45.20;;;22.47;;
6412;SDS011;3239;48.714;9.472;2023-03-05T00:54:15;46.23;;;24.00;;
6412;SDS011;3239;48.714;9.472;2023-03-05T00:56:41;44.87;;;21.80;;
6412;SDS011;3239;48.714;9.472;2023-03-05T00:59:07;40.20;;;20.67;;
6412;SDS011;3239;48.714;9.472;2023-03-05T01:01:32;41.27;;;21.03;;
6412;SDS011;3239;48.714;9.472;2023-03-05T01:03:58;44.23;;;21.57;;
6412;SDS011;3239;48.714;9.472;2023-03-05T01:06:25;43.60;;;21.50;;
6412;SDS011;3239;48.714;9.472;2023-03-05T01:08:51;46.43;;;22.67;;
6412;SDS011;3239;48.714;9.472;2023-03-05T01:11:17;48.63;;;22.13;;
6412;SDS011;3239;48.714;9.472;2023-03-05T01:13:43;47.80;;;23.73;;
6412;SDS011;3239;48.714;9.472;2023-03-05T01:16:09;50.30;;;23.63;;
6412;SDS011;3239;48.714;9.472;2023-03-05T01:18:36;52.90;;;23.03;;
6412;SDS011;3239;48.714;9.472;2023-03-05T01:21:03;40.90;;;21.60;;
6412;SDS011;3239;48.714;9.472;2023-03-05T01:23:29;50.37;;;23.67;;
6412;SDS011;3239;48.714;9.472;2023-03-05T01:25:55;51.07;;;22.50;;
6412;SDS011;3239;48.714;9.472;2023-03-05T01:28:23;45.37;;;22.30;;
6412;SDS011;3239;48.714;9.472;2023-03-05T01:30:50;47.83;;;21.83;;
6412;SDS011;3239;48.714;9.472;2023-03-05T01:33:16;39.83;;;20.43;;
6412;SDS011;3239;48.714;9.472;2023-03-05T01:35:44;46.60;;;21.90;;
6412;SDS011;3239;48.714;9.472;2023-03-05T01:38:12;38.20;;;21.23;;
6412;SDS011;3239;48.714;9.472;2023-03-05T01:40:38;46.67;;;22.20;;
6412;SDS011;3239;48.714;9.472;2023-03-05T01:43:12;46.20;;;21.80;;
6412;SDS011;3239;48.714;9.472;2023-03-05T01:48:36;45.33;;;21.70;;
6412;SDS011;3239;48.714;9.472;2023-03-05T01:51:05;40.40;;;20.87;;
6412;SDS011;3239;48.714;9.472;2023-03-05T01:53:31;39.60;;;20.90;;
6412;SDS011;3239;48.714;9.472;2023-03-05T01:55:57;41.37;;;19.97;;
6412;SDS011;3239;48.714;9.472;2023-03-05T01:58:23;45.00;;;21.80;;
6412;SDS011;3239;48.714;9.472;2023-03-05T02:00:51;45.37;;;21.50;;
6412;SDS011;3239;48.714;9.472;2023-03-05T02:03:19;43.37;;;20.87;;
6412;SDS011;3239;48.714;9.472;2023-03-05T02:05:48;41.00;;;22.23;;
6412;SDS011;3239;48.714;9.472;2023-03-05T02:08:14;45.73;;;21.73;;
6412;SDS011;3239;48.714;9.472;2023-03-05T02:10:44;54.40;;;23.13;;
6412;SDS011;3239;48.714;9.472;2023-03-05T02:13:16;41.67;;;22.00;;
6412;SDS011;3239;48.714;9.472;2023-03-05T02:15:48;48.67;;;22.20;;
6412;SDS011;3239;48.714;9.472;2023-03-05T02:18:16;44.20;;;21.73;;
6412;SDS011;3239;48.714;9.472;2023-03-05T02:20:45;47.93;;;21.63;;
6412;SDS011;3239;48.714;9.472;2023-03-05T02:23:13;42.73;;;21.90;;
6412;SDS011;3239;48.714;9.472;2023-03-05T02:25:41;52.07;;;22.60;;
6412;SDS011;3239;48.714;9.472;2023-03-05T02:28:54;45.03;;;22.10;;
6412;SDS011;3239;48.714;9.472;2023-03-05T02:31:15;42.37;;;20.13;;
6412;SDS011;3239;48.714;9.472;2023-03-05T02:33:47;39.50;;;21.00;;
6412;SDS011;3239;48.714;9.472;2023-03-05T02:36:14;41.77;;;21.23;;
6412;SDS011;3239;48.714;9.472;2023-03-05T02:38:41;45.83;;;20.33;;
6412;SDS011;3239;48.714;9.472;2023-03-05T02:41:07;48.13;;;20.90;;
6412;SDS011;3239;48.714;9.472;2023-03-05T02:43:34;43.47;;;20.40;;
6412;SDS011;3239;48.714;9.472;2023-03-05T02:45:59;41.03;;;20.20;;
6412;SDS011;3239;48.714;9.472;2023-03-05T02:48:25;44.60;;;21.87;;
6412;SDS011;3239;48.714;9.472;2023-03-05T02:50:52;47.10;;;20.57;;
6412;SDS011;3239;48.714;9.472;2023-03-05T02:53:18;49.17;;;22.83;;
6412;SDS011;3239;48.714;9.472;2023-03-05T02:55:45;42.77;;;21.27;;
6412;SDS011;3239;48.714;9.472;2023-03-05T02:58:12;46.80;;;25.63;;
6412;SDS011;3239;48.714;9.472;2023-03-05T03:00:39;44.30;;;23.67;;
6412;SDS011;3239;48.714;9.472;2023-03-05T03:03:04;46.13;;;23.43;;
6412;SDS011;3239;48.714;9.472;2023-03-05T03:05:30;50.47;;;24.60;;
6412;SDS011;3239;48.714;9.472;2023-03-05T03:07:56;47.10;;;22.23;;
6412;SDS011;3239;48.714;9.472;2023-03-05T03:10:22;45.73;;;21.90;;
6412;SDS011;3239;48.714;9.472;2023-03-05T03:12:48;40.60;;;22.67;;
6412;SDS011;3239;48.714;9.472;2023-03-05T03:15:14;42.83;;;20.50;;
6412;SDS011;3239;48.714;9.472;2023-03-05T03:17:41;43.03;;;20.37;;
6412;SDS011;3239;48.714;9.472;2023-03-05T03:20:08;48.27;;;22.20;;
6412;SDS011;3239;48.714;9.472;2023-03-05T03:22:38;45.67;;;22.20;;
6412;SDS011;3239;48.714;9.472;2023-03-05T03:25:05;43.80;;;21.10;;
6412;SDS011;3239;48.714;9.472;2023-03-05T03:27:32;41.60;;;21.50;;
6412;SDS011;3239;48.714;9.472;2023-03-05T03:29:58;42.67;;;21.60;;
6412;SDS011;3239;48.714;9.472;2023-03-05T03:32:27;43.70;;;21.47;;
6412;SDS011;3239;48.714;9.472;2023-03-05T03:34:53;39.40;;;20.13;;
6412;SDS011;3239;48.714;9.472;2023-03-05T03:37:19;41.20;;;21.40;;
6412;SDS011;3239;48.714;9.472;2023-03-05T03:39:45;43.40;;;21.27;;
6412;SDS011;3239;48.714;9.472;2023-03-05T03:42:10;45.73;;;21.37;;
6412;SDS011;3239;48.714;9.472;2023-03-05T03:44:36;50.27;;;20.70;;
6412;SDS011;3239;48.714;9.472;2023-03-05T03:47:02;42.53;;;19.73;;
6412;SDS011;3239;48.714;9.472;2023-03-05T03:49:28;43.53;;;21.53;;
6412;SDS011;3239;48.714;9.472;2023-03-05T03:51:54;43.30;;;20.50;;
6412;SDS011;3239;48.714;9.472;2023-03-05T03:54:20;43.33;;;21.30;;
6412;SDS011;3239;48.714;9.472;2023-03-05T03:56:46;46.37;;;21.50;;
6412;SDS011;3239;48.714;9.472;2023-03-05T03:59:12;43.50;;;23.83;;
6412;SDS011;3239;48.714;9.472;2023-03-05T04:01:38;49.67;;;21.50;;
6412;SDS011;3239;48.714;9.472;2023-03-05T04:04:04;44.37;;;21.10;;
6412;SDS011;3239;48.714;9.472;2023-03-05T04:06:31;47.30;;;21.00;;
6412;SDS011;3239;48.714;9.472;2023-03-05T04:08:57;51.13;;;23.23;;
6412;SDS011;3239;48.714;9.472;2023-03-05T04:11:23;50.77;;;21.47;;
6412;SDS011;3239;48.714;9.472;2023-03-05T04:13:49;53.90;;;22.60;;
6412;SDS011;3239;48.714;9.472;2023-03-05T04:16:16;45.97;;;22.23;;
6412;SDS011;3239;48.714;9.472;2023-03-05T04:18:43;46.93;;;23.20;;
6412;SDS011;3239;48.714;9.472;2023-03-05T04:21:09;44.80;;;21.63;;
6412;SDS011;3239;48.714;9.472;2023-03-05T04:23:36;42.80;;;20.87;;
6412;SDS011;3239;48.714;9.472;2023-03-05T04:26:02;46.63;;;21.80;;
6412;SDS011;3239;48.714;9.472;2023-03-05T04:28:28;46.60;;;20.77;;
6412;SDS011;3239;48.714;9.472;2023-03-05T04:30:54;46.07;;;21.70;;
6412;SDS011;3239;48.714;9.472;2023-03-05T04:33:20;44.10;;;21.40;;
6412;SDS011;3239;48.714;9.472;2023-03-05T04:35:45;43.03;;;20.20;;
6412;SDS011;3239;48.714;9.472;2023-03-05T04:38:11;46.27;;;20.20;;
6412;SDS011;3239;48.714;9.472;2023-03-05T04:40:37;45.53;;;22.23;;
6412;SDS011;3239;48.714;9.472;2023-03-05T04:43:03;49.23;;;22.43;;
6412;SDS011;3239;48.714;9.472;2023-03-05T04:45:29;46.20;;;22.50;;
6412;SDS011;3239;48.714;9.472;2023-03-05T04:47:55;51.07;;;22.07;;
6412;SDS011;3239;48.714;9.472;2023-03-05T04:50:21;53.27;;;23.90;;
6412;SDS011;3239;48.714;9.472;2023-03-05T04:52:47;48.30;;;23.70;;
6412;SDS011;3239;48.714;9.472;2023-03-05T04:55:13;45.80;;;21.83;;
6412;SDS011;3239;48.714;9.472;2023-03-05T04:57:40;42.07;;;21.23;;
6412;SDS011;3239;48.714;9.472;2023-03-05T05:00:09;43.57;;;21.50;;
6412;SDS011;3239;48.714;9.472;2023-03-05T05:02:38;49.83;;;22.33;;
6412;SDS011;3239;48.714;9.472;2023-03-05T05:05:06;39.73;;;21.63;;
6412;SDS011;3239;48.714;9.472;2023-03-05T05:07:35;49.70;;;21.97;;
6412;SDS011;3239;48.714;9.472;2023-03-05T05:10:01;48.70;;;21.70;;
6412;SDS011;3239;48.714;9.472;2023-03-05T05:12:28;51.97;;;22.57;;
6412;SDS011;3239;48.714;9.472;2023-03-05T05:14:55;34.57;;;19.73;;
6412;SDS011;3239;48.714;9.472;2023-03-05T05:17:24;43.70;;;20.80;;
6412;SDS011;3239;48.714;9.472;2023-03-05T05:19:50;44.53;;;20.43;;
6412;SDS011;3239;48.714;9.472;2023-03-05T05:22:16;42.23;;;22.00;;
6412;SDS011;3239;48.714;9.472;2023-03-05T05:24:42;46.60;;;22.40;;
6412;SDS011;3239;48.714;9.472;2023-03-05T05:27:08;45.87;;;21.20;;
6412;SDS011;3239;48.714;9.472;2023-03-05T05:29:34;49.67;;;21.13;;
6412;SDS011;3239;48.714;9.472;2023-03-05T05:31:59;49.60;;;21.60;;
6412;SDS011;3239;48.714;9.472;2023-03-05T05:34:25;41.80;;;21.40;;
6412;SDS011;3239;48.714;9.472;2023-03-05T05:36:51;47.93;;;22.80;;
6412;SDS011;3239;48.714;9.472;2023-03-05T05:39:17;39.83;;;20.77;;
6412;SDS011;3239;48.714;9.472;2023-03-05T05:41:43;44.60;;;20.90;;
6412;SDS011;3239;48.714;9.472;2023-03-05T05:44:09;48.17;;;23.67;;
6412;SDS011;3239;48.714;9.472;2023-03-05T05:46:35;48.60;;;21.30;;
6412;SDS011;3239;48.714;9.472;2023-03-05T05:49:01;39.83;;;20.63;;
6412;SDS011;3239;48.714;9.472;2023-03-05T05:51:26;49.40;;;21.30;;
6412;SDS011;3239;48.714;9.472;2023-03-05T05:53:52;44.20;;;20.93;;
6412;SDS011;3239;48.714;9.472;2023-03-05T05:56:18;47.17;;;21.90;;
6412;SDS011;3239;48.714;9.472;2023-03-05T05:58:45;39.30;;;21.80;;
6412;SDS011;3239;48.714;9.472;2023-03-05T06:01:14;50.80;;;22.97;;
6412;SDS011;3239;48.714;9.472;2023-03-05T06:03:54;44.97;;;21.60;;
6412;SDS011;3239;48.714;9.472;2023-03-05T06:06:21;43.53;;;20.33;;
6412;SDS011;3239;48.714;9.472;2023-03-05T06:08:49;43.70;;;20.77;;
6412;SDS011;3239;48.714;9.472;2023-03-05T06:11:16;42.63;;;21.27;;
6412;SDS011;3239;48.714;9.472;2023-03-05T06:13:42;47.93;;;22.23;;
6412;SDS011;3239;48.714;9.472;2023-03-05T06:16:11;45.43;;;22.13;;
6412;SDS011;3239;48.714;9.472;2023-03-05T06:18:40;47.03;;;21.90;;
6412;SDS011;3239;48.714;9.472;2023-03-05T06:21:07;44.73;;;21.23;;
6412;SDS011;3239;48.714;9.472;2023-03-05T06:23:39;43.13;;;21.17;;
6412;SDS011;3239;48.714;9.472;2023-03-05T06:26:06;46.67;;;21.63;;
6412;SDS011;3239;48.714;9.472;2023-03-05T06:28:35;49.70;;;23.10;;
6412;SDS011;3239;48.714;9.472;2023-03-05T06:31:05;44.43;;;22.10;;
6412;SDS011;3239;48.714;9.472;2023-03-05T06:33:39;50.70;;;23.23;;
6412;SDS011;3239;48.714;9.472;2023-03-05T06:36:07;46.33;;;22.57;;
6412;SDS011;3239;48.714;9.472;2023-03-05T06:38:35;46.13;;;21.50;;
6412;SDS011;3239;48.714;9.472;2023-03-05T06:41:02;45.80;;;22.10;;
6412;SDS011;3239;48.714;9.472;2023-03-05T06:43:36;47.37;;;22.57;;
6412;SDS011;3239;48.714;9.472;2023-03-05T06:46:07;51.07;;;24.37;;
6412;SDS011;3239;48.714;9.472;2023-03-05T06:48:44;44.50;;;23.00;;
6412;SDS011;3239;48.714;9.472;2023-03-05T06:51:21;42.03;;;23.40;;
6412;SDS011;3239;48.714;9.472;2023-03-05T06:54:01;45.07;;;22.40;;
6412;SDS011;3239;48.714;9.472;2023-03-05T06:56:37;47.80;;;22.77;;
6412;SDS011;3239;48.714;9.472;2023-03-05T06:59:06;43.10;;;22.23;;
6412;SDS011;3239;48.714;9.472;2023-03-05T07:01:31;45.33;;;21.93;;
6412;SDS011;3239;48.714;9.472;2023-03-05T07:03:57;49.47;;;23.90;;
6412;SDS011;3239;48.714;9.472;2023-03-05T07:06:24;49.90;;;24.00;;
6412;SDS011;3239;48.714;9.472;2023-03-05T07:08:54;55.80;;;22.47;;
6412;SDS011;3239;48.714;9.472;2023-03-05T07:11:21;44.07;;;21.67;;
6412;SDS011;3239;48.714;9.472;2023-03-05T07:13:48;57.13;;;24.50;;
6412;SDS011;3239;48.714;9.472;2023-03-05T07:16:33;42.30;;;22.00;;
6412;SDS011;3239;48.714;9.472;2023-03-05T07:19:00;51.20;;;22.30;;
6412;SDS011;3239;48.714;9.472;2023-03-05T07:21:30;46.50;;;22.20;;
6412;SDS011;3239;48.714;9.472;2023-03-05T07:23:58;47.53;;;21.73;;
6412;SDS011;3239;48.714;9.472;2023-03-05T07:26:26;41.53;;;22.30;;
6412;SDS011;3239;48.714;9.472;2023-03-05T07:28:52;45.53;;;22.37;;
6412;SDS011;3239;48.714;9.472;2023-03-05T07:31:20;44.37;;;23.37;;
6412;SDS011;3239;48.714;9.472;2023-03-05T07:33:50;50.33;;;23.70;;
6412;SDS011;3239;48.714;9.472;2023-03-05T07:36:17;51.63;;;23.60;;
6412;SDS011;3239;48.714;9.472;2023-03-05T07:38:43;44.83;;;23.03;;
6412;SDS011;3239;48.714;9.472;2023-03-05T07:41:11;46.03;;;23.77;;
6412;SDS011;3239;48.714;9.472;2023-03-05T07:43:43;52.70;;;22.40;;
6412;SDS011;3239;48.714;9.472;2023-03-05T07:46:11;42.23;;;22.07;;
6412;SDS011;3239;48.714;9.472;2023-03-05T07:48:40;48.20;;;21.03;;
6412;SDS011;3239;48.714;9.472;2023-03-05T07:51:08;50.90;;;24.40;;
6412;SDS011;3239;48.714;9.472;2023-03-05T07:53:40;41.27;;;20.80;;
6412;SDS011;3239;48.714;9.472;2023-03-05T07:56:11;43.40;;;22.40;;
6412;SDS011;3239;48.714;9.472;2023-03-05T07:58:37;47.83;;;24.20;;
6412;SDS011;3239;48.714;9.472;2023-03-05T08:01:03;50.30;;;23.23;;
6412;SDS011;3239;48.714;9.472;2023-03-05T08:03:36;49.03;;;22.73;;
6412;SDS011;3239;48.714;9.472;2023-03-05T08:06:04;48.67;;;22.10;;
6412;SDS011;3239;48.714;9.472;2023-03-05T08:08:31;47.43;;;23.80;;
6412;SDS011;3239;48.714;9.472;2023-03-05T08:11:01;48.00;;;23.23;;
6412;SDS011;3239;48.714;9.472;2023-03-05T08:13:32;45.67;;;20.77;;
6412;SDS011;3239;48.714;9.472;2023-03-05T08:16:21;52.60;;;22.47;;
6412;SDS011;3239;48.714;9.472;2023-03-05T08:18:46;48.90;;;22.67;;
6412;SDS011;3239;48.714;9.472;2023-03-05T08:21:14;42.73;;;21.83;;
6412;SDS011;3239;48.714;9.472;2023-03-05T08:23:42;43.40;;;22.60;;
6412;SDS011;3239;48.714;9.472;2023-03-05T08:26:12;38.63;;;19.93;;
6412;SDS011;3239;48.714;9.472;2023-03-05T08:28:40;41.10;;;22.63;;
6412;SDS011;3239;48.714;9.472;2023-03-05T08:31:10;55.17;;;23.07;;
6412;SDS011;3239;48.714;9.472;2023-03-05T08:33:37;43.50;;;21.93;;
6412;SDS011;3239;48.714;9.472;2023-03-05T08:36:04;50.00;;;22.03;;
6412;SDS011;3239;48.714;9.472;2023-03-05T08:38:31;41.87;;;22.67;;
6412;SDS011;3239;48.714;9.472;2023-03-05T08:40:56;46.27;;;21.50;;
6412;SDS011;3239;48.714;9.472;2023-03-05T08:43:22;43.97;;;21.17;;
6412;SDS011;3239;48.714;9.472;2023-03-05T08:45:48;45.80;;;21.87;;
6412;SDS011;3239;48.714;9.472;2023-03-05T08:48:15;46.77;;;23.53;;
6412;SDS011;3239;48.714;9.472;2023-03-05T08:50:41;38.73;;;19.70;;
6412;SDS011;3239;48.714;9.472;2023-03-05T08:53:06;38.27;;;20.23;;
6412;SDS011;3239;48.714;9.472;2023-03-05T08:55:32;42.90;;;21.90;;
6412;SDS011;3239;48.714;9.472;2023-03-05T08:57:58;39.17;;;20.90;;
6412;SDS011;3239;48.714;9.472;2023-03-05T09:00:24;42.60;;;21.33;;
6412;SDS011;3239;48.714;9.472;2023-03-05T09:02:50;44.30;;;23.03;;
6412;SDS011;3239;48.714;9.472;2023-03-05T09:05:15;41.80;;;19.13;;
6412;SDS011;3239;48.714;9.472;2023-03-05T09:07:43;40.03;;;21.57;;
6412;SDS011;3239;48.714;9.472;2023-03-05T09:10:09;37.07;;;19.47;;
6412;SDS011;3239;48.714;9.472;2023-03-05T09:12:38;40.23;;;20.10;;
6412;SDS011;3239;48.714;9.472;2023-03-05T09:15:06;35.57;;;19.50;;
6412;SDS011;3239;48.714;9.472;2023-03-05T09:17:34;36.27;;;19.40;;
6412;SDS011;3239;48.714;9.472;2023-03-05T09:20:02;38.70;;;18.43;;
6412;SDS011;3239;48.714;9.472;2023-03-05T09:22:30;48.40;;;21.03;;
6412;SDS011;3239;48.714;9.472;2023-03-05T09:24:56;46.10;;;19.67;;
6412;SDS011;3239;48.714;9.472;2023-03-05T09:27:21;45.23;;;21.10;;
6412;SDS011;3239;48.714;9.472;2023-03-05T09:29:48;36.30;;;19.93;;
6412;SDS011;3239;48.714;9.472;2023-03-05T09:32:14;41.20;;;20.67;;
6412;SDS011;3239;48.714;9.472;2023-03-05T09:34:40;40.00;;;19.63;;
6412;SDS011;3239;48.714;9.472;2023-03-05T09:37:07;37.13;;;19.37;;
6412;SDS011;3239;48.714;9.472;2023-03-05T09:39:33;40.40;;;20.83;;
6412;SDS011;3239;48.714;9.472;2023-03-05T09:42:03;38.17;;;17.97;;
6412;SDS011;3239;48.714;9.472;2023-03-05T09:48:02;38.20;;;19.20;;
6412;SDS011;3239;48.714;9.472;2023-03-05T09:50:37;32.50;;;17.47;;
6412;SDS011;3239;48.714;9.472;2023-03-05T09:56:23;45.90;;;19.97;;
6412;SDS011;3239;48.714;9.472;2023-03-05T09:58:54;47.97;;;19.30;;
6412;SDS011;3239;48.714;9.472;2023-03-05T10:01:39;37.77;;;19.23;;
6412;SDS011;3239;48.714;9.472;2023-03-05T10:04:09;34.83;;;17.33;;
6412;SDS011;3239;48.714;9.472;2023-03-05T10:07:35;37.00;;;18.43;;
6412;SDS011;3239;48.714;9.472;2023-03-05T10:10:04;34.50;;;18.23;;
6412;SDS011;3239;48.714;9.472;2023-03-05T10:12:45;40.07;;;19.50;;
6412;SDS011;3239;48.714;9.472;2023-03-05T10:15:32;36.23;;;18.10;;
6412;SDS011;3239;48.714;9.472;2023-03-05T10:20:58;32.97;;;17.00;;
6412;SDS011;3239;48.714;9.472;2023-03-05T10:26:44;34.27;;;16.67;;
6412;SDS011;3239;48.714;9.472;2023-03-05T10:29:35;32.90;;;16.83;;
6412;SDS011;3239;48.714;9.472;2023-03-05T10:32:36;29.27;;;15.80;;
6412;SDS011;3239;48.714;9.472;2023-03-05T10:38:21;36.90;;;17.73;;
6412;SDS011;3239;48.714;9.472;2023-03-05T10:43:52;30.70;;;16.27;;
6412;SDS011;3239;48.714;9.472;2023-03-05T10:46:31;38.70;;;17.10;;
6412;SDS011;3239;48.714;9.472;2023-03-05T10:49:04;31.70;;;15.73;;
6412;SDS011;3239;48.714;9.472;2023-03-05T10:51:50;32.50;;;16.40;;
6412;SDS011;3239;48.714;9.472;2023-03-05T10:54:31;28.00;;;16.23;;
6412;SDS011;3239;48.714;9.472;2023-03-05T11:02:31;27.00;;;15.93;;
6412;SDS011;3239;48.714;9.472;2023-03-05T11:04:57;31.27;;;16.27;;
6412;SDS011;3239;48.714;9.472;2023-03-05T11:12:31;31.03;;;15.20;;
6412;SDS011;3239;48.714;9.472;2023-03-05T11:15:02;26.47;;;15.20;;
6412;SDS011;3239;48.714;9.472;2023-03-05T11:17:42;34.17;;;16.03;;
6412;SDS011;3239;48.714;9.472;2023-03-05T11:36:27;28.60;;;15.00;;
6412;SDS011;3239;48.714;9.472;2023-03-05T11:41:33;31.87;;;14.63;;
6412;SDS011;3239;48.714;9.472;2023-03-05T11:44:16;31.67;;;16.20;;
6412;SDS011;3239;48.714;9.472;2023-03-05T11:46:50;31.97;;;15.20;;
6412;SDS011;3239;48.714;9.472;2023-03-05T11:49:34;29.67;;;15.00;;
6412;SDS011;3239;48.714;9.472;2023-03-05T11:55:05;27.80;;;15.30;;
6412;SDS011;3239;48.714;9.472;2023-03-05T12:00:46;26.87;;;13.10;;
6412;SDS011;3239;48.714;9.472;2023-03-05T12:03:23;27.60;;;14.70;;
6412;SDS011;3239;48.714;9.472;2023-03-05T12:09:10;28.50;;;15.00;;
6412;SDS011;3239;48.714;9.472;2023-03-05T12:11:56;26.03;;;15.47;;
6412;SDS011;3239;48.714;9.472;2023-03-05T12:23:49;24.23;;;13.10;;
6412;SDS011;3239;48.714;9.472;2023-03-05T12:26:52;25.17;;;13.30;;
6412;SDS011;3239;48.714;9.472;2023-03-05T12:31:58;27.00;;;13.53;;
6412;SDS011;3239;48.714;9.472;2023-03-05T12:37:04;21.70;;;12.50;;
6412;SDS011;3239;48.714;9.472;2023-03-05T12:42:45;26.47;;;12.60;;
6412;SDS011;3239;48.714;9.472;2023-03-05T12:45:22;32.63;;;14.60;;
6412;SDS011;3239;48.714;9.472;2023-03-05T12:52:58;23.20;;;14.00;;
6412;SDS011;3239;48.714;9.472;2023-03-05T13:04:10;22.57;;;11.57;;
6412;SDS011;3239;48.714;9.472;2023-03-05T13:06:56;24.07;;;12.20;;
6412;SDS011;3239;48.714;9.472;2023-03-05T13:09:24;21.57;;;12.50;;
6412;SDS011;3239;48.714;9.472;2023-03-05T13:11:54;21.33;;;13.50;;
6412;SDS011;3239;48.714;9.472;2023-03-05T13:14:28;22.23;;;11.67;;
6412;SDS011;3239;48.714;9.472;2023-03-05T13:37:33;17.83;;;10.37;;
6412;SDS011;3239;48.714;9.472;2023-03-05T13:39:47;19.70;;;11.50;;
6412;SDS011;3239;48.714;9.472;2023-03-05T13:42:16;25.33;;;12.53;;
6412;SDS011;3239;48.714;9.472;2023-03-05T13:44:57;23.50;;;11.53;;
6412;SDS011;3239;48.714;9.472;2023-03-05T13:47:25;18.70;;;11.10;;
6412;SDS011;3239;48.714;9.472;2023-03-05T13:49:56;27.03;;;12.10;;
6412;SDS011;3239;48.714;9.472;2023-03-05T13:52:30;20.17;;;10.10;;
6412;SDS011;3239;48.714;9.472;2023-03-05T13:55:12;21.63;;;10.40;;
6412;SDS011;3239;48.714;9.472;2023-03-05T13:57:41;19.40;;;10.70;;
6412;SDS011;3239;48.714;9.472;2023-03-05T14:02:55;17.77;;;10.57;;
6412;SDS011;3239;48.714;9.472;2023-03-05T14:05:26;23.07;;;11.37;;
6412;SDS011;3239;48.714;9.472;2023-03-05T14:07:54;20.27;;;9.87;;
6412;SDS011;3239;48.714;9.472;2023-03-05T14:13:04;21.00;;;10.53;;
6412;SDS011;3239;48.714;9.472;2023-03-05T14:15:43;19.00;;;9.63;;
6412;SDS011;3239;48.714;9.472;2023-03-05T14:19:00;24.17;;;11.10;;
6412;SDS011;3239;48.714;9.472;2023-03-05T14:21:48;21.93;;;12.03;;
6412;SDS011;3239;48.714;9.472;2023-03-05T14:24:21;15.60;;;10.00;;
6412;SDS011;3239;48.714;9.472;2023-03-05T14:29:37;17.57;;;10.37;;
6412;SDS011;3239;48.714;9.472;2023-03-05T14:35:00;24.03;;;12.90;;
6412;SDS011;3239;48.714;9.472;2023-03-05T14:37:35;22.93;;;11.37;;
6412;SDS011;3239;48.714;9.472;2023-03-05T14:45:21;21.47;;;12.33;;
6412;SDS011;3239;48.714;9.472;2023-03-05T14:47:52;23.33;;;11.93;;
6412;SDS011;3239;48.714;9.472;2023-03-05T14:50:21;17.93;;;10.20;;
6412;SDS011;3239;48.714;9.472;2023-03-05T14:52:52;23.27;;;11.57;;
6412;SDS011;3239;48.714;9.472;2023-03-05T14:55:22;21.80;;;11.30;;
6412;SDS011;3239;48.714;9.472;2023-03-05T14:57:53;21.50;;;11.70;;
6412;SDS011;3239;48.714;9.472;2023-03-05T15:00:28;21.80;;;12.60;;
6412;SDS011;3239;48.714;9.472;2023-03-05T15:02:54;17.67;;;11.20;;
6412;SDS011;3239;48.714;9.472;2023-03-05T15:05:21;19.83;;;10.67;;
6412;SDS011;3239;48.714;9.472;2023-03-05T15:07:48;24.50;;;10.97;;
6412;SDS011;3239;48.714;9.472;2023-03-05T15:10:16;20.03;;;10.80;;
6412;SDS011;3239;48.714;9.472;2023-03-05T15:12:47;26.40;;;13.10;;
6412;SDS011;3239;48.714;9.472;2023-03-05T15:15:15;22.07;;;10.80;;
6412;SDS011;3239;48.714;9.472;2023-03-05T15:17:43;19.93;;;10.97;;
6412;SDS011;3239;48.714;9.472;2023-03-05T15:20:19;19.33;;;11.13;;
6412;SDS011;3239;48.714;9.472;2023-03-05T15:22:51;19.33;;;11.73;;
6412;SDS011;3239;48.714;9.472;2023-03-05T15:25:18;24.50;;;11.70;;
6412;SDS011;3239;48.714;9.472;2023-03-05T15:27:46;27.07;;;11.90;;
6412;SDS011;3239;48.714;9.472;2023-03-05T15:30:19;21.83;;;10.77;;
6412;SDS011;3239;48.714;9.472;2023-03-05T15:32:54;21.30;;;10.30;;
6412;SDS011;3239;48.714;9.472;2023-03-05T15:35:24;18.03;;;10.40;;
6412;SDS011;3239;48.714;9.472;2023-03-05T15:37:50;17.00;;;9.50;;
6412;SDS011;3239;48.714;9.472;2023-03-05T15:40:17;18.00;;;9.77;;
6412;SDS011;3239;48.714;9.472;2023-03-05T15:42:44;19.97;;;10.90;;
6412;SDS011;3239;48.714;9.472;2023-03-05T15:45:11;16.50;;;9.90;;
6412;SDS011;3239;48.714;9.472;2023-03-05T15:47:39;21.43;;;10.87;;
6412;SDS011;3239;48.714;9.472;2023-03-05T15:50:05;18.60;;;9.53;;
6412;SDS011;3239;48.714;9.472;2023-03-05T15:52:33;21.10;;;10.10;;
6412;SDS011;3239;48.714;9.472;2023-03-05T15:55:00;17.80;;;10.40;;
6412;SDS011;3239;48.714;9.472;2023-03-05T15:57:27;19.03;;;10.37;;
6412;SDS011;3239;48.714;9.472;2023-03-05T15:59:53;14.73;;;9.43;;
6412;SDS011;3239;48.714;9.472;2023-03-05T16:02:19;24.30;;;9.90;;
6412;SDS011;3239;48.714;9.472;2023-03-05T16:04:45;17.83;;;9.73;;
6412;SDS011;3239;48.714;9.472;2023-03-05T16:07:11;20.73;;;10.53;;
6412;SDS011;3239;48.714;9.472;2023-03-05T16:09:40;16.03;;;9.70;;
6412;SDS011;3239;48.714;9.472;2023-03-05T16:12:13;20.63;;;11.00;;
6412;SDS011;3239;48.714;9.472;2023-03-05T16:14:44;19.80;;;11.20;;
6412;SDS011;3239;48.714;9.472;2023-03-05T16:17:10;20.90;;;10.70;;
6412;SDS011;3239;48.714;9.472;2023-03-05T16:19:39;19.30;;;11.70;;
6412;SDS011;3239;48.714;9.472;2023-03-05T16:22:08;18.57;;;11.33;;
6412;SDS011;3239;48.714;9.472;2023-03-05T16:24:34;24.33;;;13.20;;
6412;SDS011;3239;48.714;9.472;2023-03-05T16:26:59;26.10;;;13.33;;
6412;SDS011;3239;48.714;9.472;2023-03-05T16:29:25;21.30;;;12.67;;
6412;SDS011;3239;48.714;9.472;2023-03-05T16:31:52;18.77;;;10.60;;
6412;SDS011;3239;48.714;9.472;2023-03-05T16:34:19;17.63;;;10.47;;
6412;SDS011;3239;48.714;9.472;2023-03-05T16:36:45;17.77;;;10.80;;
6412;SDS011;3239;48.714;9.472;2023-03-05T16:39:14;18.70;;;11.10;;
6412;SDS011;3239;48.714;9.472;2023-03-05T16:41:40;20.47;;;10.67;;
6412;SDS011;3239;48.714;9.472;2023-03-05T16:44:06;19.43;;;10.67;;
6412;SDS011;3239;48.714;9.472;2023-03-05T16:46:32;18.60;;;10.37;;
6412;SDS011;3239;48.714;9.472;2023-03-05T16:48:57;19.83;;;11.27;;
6412;SDS011;3239;48.714;9.472;2023-03-05T16:51:23;18.67;;;11.53;;
6412;SDS011;3239;48.714;9.472;2023-03-05T16:53:50;19.77;;;11.30;;
6412;SDS011;3239;48.714;9.472;2023-03-05T16:56:16;18.70;;;10.97;;
6412;SDS011;3239;48.714;9.472;2023-03-05T16:58:42;22.07;;;10.87;;
6412;SDS011;3239;48.714;9.472;2023-03-05T17:01:13;22.17;;;10.90;;
6412;SDS011;3239;48.714;9.472;2023-03-05T17:03:42;16.53;;;10.33;;
6412;SDS011;3239;48.714;9.472;2023-03-05T17:06:16;21.07;;;11.40;;
6412;SDS011;3239;48.714;9.472;2023-03-05T17:08:48;16.80;;;10.30;;